createdAt,value
2017-10-26T00:00:57.158Z,98.00
2017-10-26T00:03:25.982Z,97.20
2017-10-26T00:05:54.718Z,95.50
2017-10-26T00:08:22.726Z,94.80
2017-10-26T00:10:50.854Z,94.90
2017-10-26T00:13:18.854Z,94.70
2017-10-26T00:15:47.335Z,93.60
2017-10-26T00:18:16.152Z,93.60
2017-10-26T00:20:44.824Z,94.30
2017-10-26T00:23:13.602Z,94.20
2017-10-26T00:25:41.734Z,93.70
2017-10-26T00:28:10.479Z,94.60
2017-10-26T00:30:38.948Z,94.60
2017-10-26T00:33:07.677Z,96.10
2017-10-26T00:35:36.498Z,96.30
2017-10-26T00:38:05.056Z,96.20
2017-10-26T00:40:34.002Z,94.20
2017-10-26T00:43:02.193Z,94.30
2017-10-26T00:45:30.740Z,93.60
2017-10-26T00:47:59.599Z,93.20
2017-10-26T00:50:28.775Z,95.30
2017-10-26T00:52:57.476Z,95.20
2017-10-26T00:55:25.658Z,96.10
2017-10-26T00:57:54.506Z,94.70
2017-10-26T01:00:22.751Z,94.70
2017-10-26T01:02:51.395Z,94.30
2017-10-26T01:05:19.931Z,94.20
2017-10-26T01:07:48.674Z,94.30
2017-10-26T01:10:16.866Z,94.50
2017-10-26T01:12:45.593Z,93.20
2017-10-26T01:15:13.646Z,93.20
2017-10-26T01:17:42.183Z,92.60
2017-10-26T01:20:10.256Z,92.60
2017-10-26T01:22:38.843Z,92.60
2017-10-26T01:25:07.119Z,92.50
2017-10-26T01:27:35.127Z,92.80
2017-10-26T01:30:04.004Z,92.90
2017-10-26T01:32:33.321Z,93.10
2017-10-26T01:35:02.841Z,92.80
2017-10-26T01:37:31.352Z,92.80
2017-10-26T01:40:00.407Z,93.00
2017-10-26T01:42:29.270Z,93.70
2017-10-26T01:44:57.547Z,93.70
2017-10-26T01:47:26.296Z,93.60
2017-10-26T01:49:54.404Z,93.20
2017-10-26T01:52:26.990Z,93.00
2017-10-26T01:54:56.012Z,93.00
2017-10-26T01:57:25.058Z,92.70
2017-10-26T01:59:53.146Z,92.80
2017-10-26T02:02:21.359Z,93.20
2017-10-26T02:04:50.223Z,92.50
2017-10-26T02:07:19.246Z,92.50
2017-10-26T02:09:48.763Z,92.50
2017-10-26T02:12:16.956Z,92.50
2017-10-26T02:14:45.219Z,92.20
2017-10-26T02:17:14.098Z,92.20
2017-10-26T02:19:43.397Z,92.40
2017-10-26T02:22:12.308Z,92.10
2017-10-26T02:24:41.052Z,92.10
2017-10-26T02:27:09.052Z,92.20
2017-10-26T02:29:49.442Z,91.90
2017-10-26T02:45:17.684Z,92.10
2017-10-26T02:47:46.871Z,92.50
2017-10-26T02:50:16.414Z,93.90
2017-10-26T02:52:45.009Z,93.90
2017-10-26T02:55:13.229Z,94.20
2017-10-26T02:57:41.295Z,95.90
2017-10-26T03:00:10.414Z,96.80
2017-10-26T03:02:39.944Z,95.20
2017-10-26T03:05:08.467Z,95.20
2017-10-26T03:07:37.198Z,93.80
2017-10-26T03:10:06.398Z,92.80
2017-10-26T03:12:36.503Z,92.10
2017-10-26T03:15:06.027Z,91.80
2017-10-26T03:17:34.775Z,91.10
2017-10-26T03:20:02.902Z,91.10
2017-10-26T03:22:31.559Z,89.20
2017-10-26T03:25:00.351Z,87.50
2017-10-26T03:27:29.195Z,87.60
2017-10-26T03:29:57.415Z,87.50
2017-10-26T03:32:26.159Z,85.60
2017-10-26T03:34:54.238Z,85.50
2017-10-26T03:37:22.422Z,84.20
2017-10-26T03:39:50.432Z,83.40
2017-10-26T03:42:19.191Z,82.10
2017-10-26T03:44:47.344Z,82.10
2017-10-26T03:47:15.451Z,81.00
2017-10-26T03:49:43.475Z,80.30
2017-10-26T03:52:11.575Z,80.00
2017-10-26T03:54:39.618Z,78.70
2017-10-26T03:57:07.690Z,78.60
2017-10-26T03:59:35.870Z,78.10
2017-10-26T04:02:03.923Z,77.80
2017-10-26T04:04:31.883Z,77.60
2017-10-26T04:07:00.802Z,77.20
2017-10-26T04:09:28.859Z,77.10
2017-10-26T04:11:57.022Z,76.30
2017-10-26T04:14:25.986Z,73.00
2017-10-26T04:16:53.959Z,73.00
2017-10-26T04:19:21.987Z,71.60
2017-10-26T04:21:50.113Z,70.70
2017-10-26T04:24:18.348Z,70.30
2017-10-26T04:26:46.571Z,70.50
2017-10-26T04:29:14.704Z,70.50
2017-10-26T04:31:43.035Z,71.00
2017-10-26T04:34:11.822Z,70.00
2017-10-26T04:36:40.722Z,71.10
2017-10-26T04:39:09.590Z,71.70
2017-10-26T04:41:37.623Z,71.70
2017-10-26T04:44:05.788Z,71.40
2017-10-26T04:46:34.464Z,70.80
2017-10-26T04:49:02.658Z,71.10
2017-10-26T04:51:30.803Z,70.40
2017-10-26T04:54:00.455Z,69.80
2017-10-26T04:56:28.482Z,69.80
2017-10-26T04:58:58.128Z,69.90
2017-10-26T05:01:26.643Z,69.70
2017-10-26T05:03:54.659Z,69.80
2017-10-26T05:06:22.930Z,68.50
2017-10-26T05:08:52.476Z,64.60
2017-10-26T05:11:20.962Z,64.60
2017-10-26T05:13:49.568Z,63.90
2017-10-26T05:16:18.306Z,64.00
2017-10-26T05:18:46.330Z,63.70
2017-10-26T05:21:14.435Z,63.80
2017-10-26T05:23:43.848Z,63.30
2017-10-26T05:26:12.757Z,63.20
2017-10-26T05:28:41.412Z,62.00
2017-10-26T05:31:10.151Z,57.70
2017-10-26T05:33:38.279Z,57.70
2017-10-26T05:36:07.138Z,57.20
2017-10-26T05:38:35.594Z,57.20
2017-10-26T05:41:04.243Z,57.60
2017-10-26T05:43:33.160Z,59.30
2017-10-26T05:46:01.994Z,59.30
2017-10-26T05:48:30.058Z,59.60
2017-10-26T05:50:58.369Z,61.20
2017-10-26T05:53:27.115Z,63.60
2017-10-26T05:55:55.648Z,63.60
2017-10-26T05:58:25.371Z,65.30
2017-10-26T06:00:53.548Z,65.20
2017-10-26T06:03:21.558Z,65.80
2017-10-26T06:05:49.675Z,66.90
2017-10-26T06:08:18.466Z,66.90
2017-10-26T06:10:47.859Z,66.50
2017-10-26T06:13:17.139Z,67.30
2017-10-26T06:15:45.782Z,67.20
2017-10-26T06:18:13.850Z,66.30
2017-10-26T06:20:41.982Z,65.80
2017-10-26T06:23:10.016Z,64.70
2017-10-26T06:25:38.597Z,65.00
2017-10-26T06:28:06.741Z,64.00
2017-10-26T06:30:35.996Z,62.80
2017-10-26T06:33:04.047Z,62.80
2017-10-26T06:35:32.295Z,61.20
2017-10-26T06:38:00.325Z,57.90
2017-10-26T06:40:28.810Z,56.90
2017-10-26T06:42:57.052Z,56.00
2017-10-26T06:45:25.243Z,55.00
2017-10-26T06:47:53.367Z,55.40
2017-10-26T06:50:22.371Z,56.50
2017-10-26T06:52:50.570Z,56.50
2017-10-26T06:55:19.454Z,56.80
2017-10-26T06:57:47.706Z,57.30
2017-10-26T07:00:16.967Z,58.80
2017-10-26T07:02:45.018Z,58.70
2017-10-26T07:05:13.296Z,58.60
2017-10-26T07:07:41.358Z,59.20
2017-10-26T07:10:09.836Z,58.70
2017-10-26T07:12:38.701Z,58.20
2017-10-26T07:15:07.486Z,57.90
2017-10-26T07:17:36.250Z,57.80
2017-10-26T07:20:04.511Z,57.80
2017-10-26T07:22:32.536Z,57.20
2017-10-26T07:25:01.875Z,57.30
2017-10-26T07:27:30.846Z,57.30
2017-10-26T07:29:58.881Z,57.10
2017-10-26T07:32:28.245Z,57.20
2017-10-26T07:34:56.427Z,56.60
2017-10-26T07:37:24.554Z,54.00
2017-10-26T07:39:53.366Z,61.80
2017-10-26T07:42:21.507Z,61.80
2017-10-26T07:44:50.794Z,65.50
2017-10-26T07:47:19.415Z,65.50
2017-10-26T07:49:48.332Z,69.90
2017-10-26T07:52:16.351Z,70.80
2017-10-26T07:54:44.614Z,65.90
2017-10-26T07:57:12.895Z,66.30
2017-10-26T07:59:43.018Z,68.60
2017-10-26T08:02:11.050Z,68.60
2017-10-26T08:04:39.218Z,69.70
2017-10-26T08:07:07.290Z,69.90
2017-10-26T08:09:35.382Z,70.50
2017-10-26T08:12:03.555Z,72.80
2017-10-26T08:14:31.650Z,76.30
2017-10-26T08:16:59.699Z,77.10
2017-10-26T08:19:27.938Z,77.70
2017-10-26T08:21:56.972Z,79.90
2017-10-26T08:24:25.019Z,79.90
2017-10-26T08:26:53.208Z,80.50
2017-10-26T08:29:21.208Z,82.80
2017-10-26T08:31:49.243Z,84.70
2017-10-26T08:34:17.365Z,86.30
2017-10-26T08:36:46.363Z,87.40
2017-10-26T08:39:14.410Z,89.40
2017-10-26T08:41:43.056Z,89.70
2017-10-26T08:44:11.060Z,90.70
2017-10-26T08:46:39.047Z,91.20
2017-10-26T08:49:07.909Z,90.90
2017-10-26T08:51:36.067Z,90.80
2017-10-26T08:54:04.139Z,92.00
2017-10-26T08:56:32.464Z,92.60
2017-10-26T08:59:00.600Z,92.60
2017-10-26T09:01:29.171Z,92.70
2017-10-26T09:03:58.180Z,92.10
2017-10-26T09:06:26.735Z,92.00
2017-10-26T09:08:55.487Z,92.40
2017-10-26T09:11:23.894Z,92.40
2017-10-26T09:13:52.074Z,91.80
2017-10-26T09:16:20.821Z,91.10
2017-10-26T09:18:49.174Z,91.60
2017-10-26T09:21:17.410Z,91.20
2017-10-26T09:23:45.786Z,91.20
2017-10-26T09:26:14.114Z,90.70
2017-10-26T09:28:42.258Z,91.10
2017-10-26T09:31:11.063Z,91.00
2017-10-26T09:33:40.027Z,91.00
2017-10-26T09:36:08.465Z,91.00
2017-10-26T09:38:36.640Z,91.40
2017-10-26T09:41:04.923Z,91.80
2017-10-26T09:43:33.074Z,91.80
2017-10-26T09:46:01.180Z,91.40
2017-10-26T09:48:29.431Z,91.50
2017-10-26T09:50:57.497Z,91.40
2017-10-26T09:53:25.755Z,91.20
2017-10-26T09:55:54.861Z,91.20
2017-10-26T09:58:23.886Z,91.40
2017-10-26T10:00:52.019Z,91.40
2017-10-26T10:03:20.980Z,92.00
2017-10-26T10:05:49.118Z,92.00
2017-10-26T10:08:17.401Z,92.90
2017-10-26T10:10:45.575Z,92.50
2017-10-26T10:13:13.700Z,92.80
2017-10-26T10:15:41.856Z,93.00
2017-10-26T10:18:10.232Z,93.40
2017-10-26T10:20:38.458Z,93.60
2017-10-26T10:23:07.315Z,94.50
2017-10-26T10:25:35.566Z,94.50
2017-10-26T10:28:03.682Z,95.10
2017-10-26T10:30:32.524Z,96.30
2017-10-26T10:33:00.943Z,96.20
2017-10-26T10:35:29.188Z,96.10
2017-10-26T10:37:57.302Z,95.70
2017-10-26T10:40:25.762Z,96.10
2017-10-26T10:42:53.998Z,96.20
2017-10-26T10:45:22.241Z,97.00
2017-10-26T10:47:50.664Z,97.20
2017-10-26T10:50:18.839Z,97.90
2017-10-26T10:52:46.944Z,98.30
2017-10-26T10:55:15.108Z,97.90
2017-10-26T10:57:43.404Z,98.50
2017-10-26T11:00:17.554Z,98.30
2017-10-26T11:02:46.970Z,98.20
2017-10-26T11:05:15.131Z,98.20
2017-10-26T11:07:44.255Z,97.90
2017-10-26T11:10:12.456Z,97.90
2017-10-26T11:12:40.515Z,98.40
2017-10-26T11:15:08.781Z,99.30
2017-10-26T11:17:37.060Z,99.20
2017-10-26T11:20:05.210Z,99.20
2017-10-26T11:22:34.437Z,97.80
2017-10-26T11:25:02.755Z,97.80
2017-10-26T11:27:31.146Z,97.90
2017-10-26T11:30:00.007Z,98.20
2017-10-26T11:32:28.646Z,98.40
2017-10-26T11:34:58.662Z,97.10
2017-10-26T11:37:27.651Z,97.30
2017-10-26T11:39:56.612Z,97.80
2017-10-26T11:42:24.856Z,97.80
2017-10-26T11:44:53.138Z,97.60
2017-10-26T11:47:22.076Z,97.80
2017-10-26T11:49:50.624Z,98.20
2017-10-26T11:52:20.165Z,98.50
2017-10-26T11:54:49.088Z,98.50
2017-10-26T11:57:17.624Z,98.30
2017-10-26T11:59:45.884Z,98.10
2017-10-26T12:02:14.380Z,96.70
2017-10-26T12:04:42.648Z,96.60
2017-10-26T12:07:11.483Z,97.00
2017-10-26T12:09:40.971Z,96.20
2017-10-26T12:12:09.592Z,96.20
2017-10-26T12:14:38.637Z,98.10
2017-10-26T12:17:06.744Z,97.80
2017-10-26T12:19:36.388Z,97.10
2017-10-26T12:22:04.705Z,97.10
2017-10-26T12:24:33.586Z,97.60
2017-10-26T12:27:01.723Z,97.10
2017-10-26T12:29:30.025Z,97.30
2017-10-26T12:31:58.162Z,98.60
2017-10-26T12:34:27.785Z,98.90
2017-10-26T12:36:56.125Z,98.90
2017-10-26T12:39:24.714Z,99.40
2017-10-26T12:41:54.389Z,99.20
2017-10-26T12:44:27.563Z,99.30
2017-10-26T13:12:58.582Z,99.90
2017-10-26T13:15:26.890Z,99.90
2017-10-26T13:17:55.202Z,99.90
2017-10-26T13:20:24.346Z,99.90
2017-10-26T13:22:52.536Z,99.90
2017-10-26T13:25:21.363Z,99.90
2017-10-26T13:27:49.541Z,99.90
2017-10-26T13:30:17.556Z,99.90
2017-10-26T13:32:45.572Z,99.90
2017-10-26T13:35:14.240Z,99.90
2017-10-26T13:37:42.851Z,99.90
2017-10-26T13:40:10.870Z,99.90
2017-10-26T13:42:39.155Z,99.90
2017-10-26T13:45:07.195Z,99.90
2017-10-26T13:47:35.960Z,99.90
2017-10-26T13:50:04.780Z,99.90
2017-10-26T13:52:34.366Z,99.90
2017-10-26T13:55:02.474Z,99.90
2017-10-26T13:57:31.358Z,99.90
2017-10-26T14:00:00.103Z,99.90
2017-10-26T14:02:28.355Z,99.90
2017-10-26T14:04:57.304Z,99.90
2017-10-26T14:07:26.657Z,99.90
2017-10-26T14:09:54.722Z,99.90
2017-10-26T14:12:23.391Z,99.90
2017-10-26T14:14:51.449Z,99.90
2017-10-26T14:17:20.234Z,99.90
2017-10-26T14:19:49.690Z,99.90
2017-10-26T14:22:18.221Z,99.90
2017-10-26T14:24:47.326Z,99.90
2017-10-26T14:27:16.717Z,99.90
2017-10-26T14:29:45.537Z,99.90
2017-10-26T14:32:13.541Z,99.90
2017-10-26T14:34:42.299Z,99.90
2017-10-26T14:37:10.502Z,99.90
2017-10-26T14:39:38.901Z,99.90
2017-10-26T14:42:07.635Z,99.90
2017-10-26T14:44:36.593Z,99.90
2017-10-26T14:47:04.968Z,99.90
2017-10-26T14:49:33.887Z,99.90
2017-10-26T14:52:02.263Z,99.90
2017-10-26T14:54:31.324Z,99.90
2017-10-26T14:57:00.949Z,99.90
2017-10-26T14:59:29.806Z,99.90
2017-10-26T15:01:58.172Z,99.90
2017-10-26T15:04:26.632Z,99.90
2017-10-26T15:06:55.608Z,99.90
2017-10-26T15:09:24.488Z,99.90
2017-10-26T15:11:53.479Z,99.90
2017-10-26T15:14:22.344Z,99.90
2017-10-26T15:16:51.428Z,99.90
2017-10-26T15:19:19.916Z,99.90
2017-10-26T15:21:49.389Z,99.90
2017-10-26T15:24:18.238Z,99.90
2017-10-26T15:26:47.912Z,99.90
2017-10-26T15:29:16.622Z,99.90
2017-10-26T15:31:46.412Z,99.90
2017-10-26T15:34:14.873Z,99.90
2017-10-26T15:36:43.610Z,99.90
2017-10-26T15:39:13.554Z,99.90
2017-10-26T15:41:42.830Z,99.90
2017-10-26T15:44:11.940Z,99.90
2017-10-26T15:46:40.261Z,99.90
2017-10-26T15:49:08.694Z,99.90
2017-10-26T15:51:37.792Z,99.90
2017-10-26T15:54:06.940Z,99.90
2017-10-26T15:56:35.366Z,99.90
2017-10-26T15:59:04.364Z,99.90
2017-10-26T16:01:33.459Z,99.90
2017-10-26T16:04:01.837Z,99.90
2017-10-26T16:06:29.954Z,99.90
2017-10-26T16:08:58.162Z,99.90
2017-10-26T16:11:26.375Z,99.90
2017-10-26T16:13:54.427Z,99.90
2017-10-26T16:16:22.468Z,99.90
2017-10-26T16:18:50.658Z,99.90
2017-10-26T16:21:18.659Z,99.90
2017-10-26T16:23:46.648Z,99.90
2017-10-26T16:26:14.824Z,99.90
2017-10-26T16:28:42.844Z,99.90
2017-10-26T16:31:10.876Z,99.90
2017-10-26T16:33:39.755Z,99.90
2017-10-26T16:36:07.851Z,99.90
2017-10-26T16:38:36.613Z,99.90
2017-10-26T16:41:04.749Z,99.90
2017-10-26T16:43:32.763Z,99.90
2017-10-26T16:46:00.803Z,99.90
2017-10-26T16:48:28.928Z,99.90
2017-10-26T16:50:57.672Z,99.90
2017-10-26T16:53:25.701Z,99.90
2017-10-26T16:55:54.644Z,99.90
2017-10-26T16:58:23.435Z,99.90
2017-10-26T17:00:51.772Z,99.90
2017-10-26T17:03:20.724Z,99.90
2017-10-26T17:05:48.772Z,99.90
2017-10-26T17:08:16.783Z,99.90
2017-10-26T17:10:46.336Z,99.90
2017-10-26T17:13:14.887Z,99.90
2017-10-26T17:15:44.189Z,99.90
2017-10-26T17:18:13.069Z,99.90
2017-10-26T17:20:41.874Z,99.90
2017-10-26T17:23:10.628Z,99.90
2017-10-26T17:25:39.404Z,99.90
2017-10-26T17:28:08.072Z,99.90
2017-10-26T17:30:36.693Z,99.90
2017-10-26T17:33:04.863Z,99.90
2017-10-26T17:35:32.864Z,99.90
2017-10-26T17:38:01.657Z,99.90
2017-10-26T17:40:30.507Z,99.90
2017-10-26T17:42:58.559Z,99.90
2017-10-26T17:45:26.580Z,99.90
2017-10-26T17:47:55.514Z,99.90
2017-10-26T17:50:23.528Z,99.90
2017-10-26T17:52:51.531Z,99.90
2017-10-26T17:55:20.399Z,99.90
2017-10-26T17:57:48.466Z,99.90
2017-10-26T18:00:16.943Z,99.90
2017-10-26T18:02:45.894Z,99.90
2017-10-26T18:05:13.971Z,99.90
2017-10-26T18:07:42.039Z,99.90
2017-10-26T18:10:10.224Z,99.90
2017-10-26T18:12:38.978Z,99.90
2017-10-26T18:15:08.530Z,99.90
2017-10-26T18:17:38.318Z,99.90
2017-10-26T18:20:06.315Z,99.90
2017-10-26T18:22:34.362Z,99.90
2017-10-26T18:25:02.514Z,99.90
2017-10-26T18:27:31.822Z,99.90
2017-10-26T18:30:01.340Z,99.90
2017-10-26T18:32:29.510Z,99.90
2017-10-26T18:34:57.487Z,99.90
2017-10-26T18:37:25.483Z,99.90
2017-10-26T18:39:53.634Z,99.90
2017-10-26T18:42:21.615Z,99.90
2017-10-26T18:44:50.178Z,99.90
2017-10-26T18:47:19.623Z,99.90
2017-10-26T18:49:48.072Z,99.90
2017-10-26T18:52:16.945Z,99.90
2017-10-26T18:54:45.834Z,99.90
2017-10-26T18:57:15.114Z,99.90
2017-10-26T18:59:43.540Z,99.90
2017-10-26T19:02:12.183Z,99.90
2017-10-26T19:04:40.783Z,99.90
2017-10-26T19:07:09.586Z,99.90
2017-10-26T19:09:38.512Z,99.90
2017-10-26T19:12:07.214Z,99.90
2017-10-26T19:14:35.819Z,99.90
2017-10-26T19:17:04.542Z,99.90
2017-10-26T19:19:33.783Z,99.90
2017-10-26T19:22:01.768Z,99.90
2017-10-26T19:24:29.896Z,99.90
2017-10-26T19:26:57.934Z,99.90
2017-10-26T19:29:25.972Z,99.90
2017-10-26T19:31:54.634Z,99.90
2017-10-26T19:34:22.675Z,99.90
2017-10-26T19:36:51.420Z,99.90
2017-10-26T19:39:19.606Z,99.90
2017-10-26T19:41:47.607Z,99.90
2017-10-26T19:44:25.774Z,99.90
2017-10-26T19:46:55.265Z,99.90
2017-10-26T19:49:23.765Z,99.90
2017-10-26T19:51:52.585Z,99.90
2017-10-26T19:54:20.575Z,99.90
2017-10-26T19:56:49.350Z,99.90
2017-10-26T19:59:17.932Z,99.90
2017-10-26T20:01:46.676Z,99.90
2017-10-26T20:04:15.184Z,99.90
2017-10-26T20:06:43.821Z,99.90
2017-10-26T20:09:12.609Z,99.90
2017-10-26T20:11:41.423Z,99.90
2017-10-26T20:14:09.598Z,99.90
2017-10-26T20:16:38.363Z,99.90
2017-10-26T20:19:07.515Z,99.90
2017-10-26T20:21:35.678Z,99.90
2017-10-26T20:24:03.744Z,99.90
2017-10-26T20:26:31.731Z,99.90
2017-10-26T20:29:00.511Z,99.90
2017-10-26T20:31:28.916Z,99.90
2017-10-26T20:33:57.756Z,99.90
2017-10-26T20:36:26.057Z,99.90
2017-10-26T20:38:54.087Z,99.90
2017-10-26T20:41:22.865Z,99.90
2017-10-26T20:43:51.791Z,99.90
2017-10-26T20:46:20.431Z,99.90
2017-10-26T20:48:49.039Z,99.90
2017-10-26T20:51:24.003Z,99.90
2017-10-26T20:53:57.727Z,99.90
2017-10-26T20:56:31.590Z,99.90
2017-10-26T20:59:06.285Z,99.90
2017-10-26T21:01:40.347Z,99.90
2017-10-26T21:04:27.285Z,99.90
2017-10-26T21:06:56.976Z,99.90
2017-10-26T21:09:25.819Z,99.90
2017-10-26T21:11:59.408Z,99.90
2017-10-26T21:14:28.493Z,99.90
2017-10-26T21:16:57.075Z,99.90
2017-10-26T21:19:25.707Z,99.90
2017-10-26T21:21:54.988Z,99.90
2017-10-26T21:24:23.561Z,99.90
2017-10-26T21:26:51.606Z,99.90
2017-10-26T21:29:19.654Z,99.90
2017-10-26T21:31:49.074Z,99.90
2017-10-26T21:34:17.106Z,99.90
2017-10-26T21:36:45.683Z,99.90
2017-10-26T21:39:14.238Z,99.90
2017-10-26T21:41:42.244Z,99.90
2017-10-26T21:44:10.294Z,99.90
2017-10-26T21:46:38.916Z,99.90
2017-10-26T21:49:08.091Z,99.90
2017-10-26T21:51:36.767Z,99.90
2017-10-26T21:54:05.626Z,99.90
2017-10-26T21:56:33.616Z,99.90
2017-10-26T21:59:01.623Z,99.90
2017-10-26T22:01:30.095Z,99.90
2017-10-26T22:03:58.786Z,99.90
2017-10-26T22:06:26.839Z,99.90
2017-10-26T22:08:55.597Z,99.90
2017-10-26T22:11:23.638Z,99.90
2017-10-26T22:13:52.418Z,99.90
2017-10-26T22:16:21.003Z,99.90
2017-10-26T22:18:49.649Z,99.90
2017-10-26T22:21:18.155Z,99.90
2017-10-26T22:23:46.763Z,99.90
2017-10-26T22:26:15.555Z,99.90
2017-10-26T22:28:44.300Z,99.90
2017-10-26T22:31:12.303Z,99.90
2017-10-26T22:33:40.367Z,99.90
2017-10-26T22:36:08.979Z,99.90
2017-10-26T22:38:38.355Z,99.90
2017-10-26T22:41:06.386Z,99.90
2017-10-26T22:43:34.430Z,99.90
2017-10-26T22:46:03.219Z,99.90
2017-10-26T22:48:32.667Z,99.90
2017-10-26T22:51:00.705Z,99.90
2017-10-26T22:53:30.043Z,99.90
2017-10-26T22:55:58.702Z,99.90
2017-10-26T22:58:26.712Z,99.90
2017-10-26T23:00:54.864Z,99.90
2017-10-26T23:03:23.564Z,99.90
2017-10-26T23:05:52.148Z,99.90
2017-10-26T23:08:20.149Z,99.90
2017-10-26T23:10:48.727Z,99.90
2017-10-26T23:13:16.731Z,99.90
2017-10-26T23:15:45.482Z,99.90
2017-10-26T23:18:14.110Z,99.90
2017-10-26T23:20:43.474Z,99.90
2017-10-26T23:23:12.097Z,99.90
2017-10-26T23:25:41.442Z,99.90
2017-10-26T23:28:09.455Z,99.90
2017-10-26T23:30:37.461Z,99.90
2017-10-26T23:33:05.516Z,99.90
2017-10-26T23:35:34.294Z,99.90
2017-10-26T23:38:03.506Z,99.90
2017-10-26T23:40:32.713Z,99.90
2017-10-26T23:43:00.716Z,99.90
2017-10-26T23:45:28.754Z,99.90
2017-10-26T23:47:58.093Z,99.90
2017-10-26T23:50:26.142Z,99.90
2017-10-26T23:52:54.663Z,99.90
2017-10-26T23:55:23.190Z,99.90
2017-10-26T23:57:52.638Z,99.90
